sensor_id;sensor_type;location;lat;lon;timestamp;P1;durP1;ratioP1;P2;durP2;ratioP2
65202;SDS011;51788;45.124;38.966;2022-12-18T00:00:45;13.32;;;7.25;;
65202;SDS011;51788;45.124;38.966;2022-12-18T00:03:12;11.38;;;7.20;;
65202;SDS011;51788;45.124;38.966;2022-12-18T00:05:46;8.98;;;7.50;;
65202;SDS011;51788;45.124;38.966;2022-12-18T00:08:16;15.43;;;8.10;;
65202;SDS011;51788;45.124;38.966;2022-12-18T00:10:42;13.30;;;7.97;;
65202;SDS011;51788;45.124;38.966;2022-12-18T00:13:09;13.18;;;8.25;;
65202;SDS011;51788;45.124;38.966;2022-12-18T00:15:35;19.58;;;8.95;;
65202;SDS011;51788;45.124;38.966;2022-12-18T00:18:03;15.13;;;7.47;;
65202;SDS011;51788;45.124;38.966;2022-12-18T00:20:29;12.15;;;8.38;;
65202;SDS011;51788;45.124;38.966;2022-12-18T00:22:56;15.30;;;8.27;;
65202;SDS011;51788;45.124;38.966;2022-12-18T00:25:22;18.05;;;9.38;;
65202;SDS011;51788;45.124;38.966;2022-12-18T00:27:48;12.80;;;9.50;;
65202;SDS011;51788;45.124;38.966;2022-12-18T00:30:14;12.20;;;9.82;;
65202;SDS011;51788;45.124;38.966;2022-12-18T00:32:40;16.60;;;10.50;;
65202;SDS011;51788;45.124;38.966;2022-12-18T00:35:06;14.27;;;9.48;;
65202;SDS011;51788;45.124;38.966;2022-12-18T00:37:33;15.23;;;10.15;;
65202;SDS011;51788;45.124;38.966;2022-12-18T00:39:59;17.10;;;10.23;;
65202;SDS011;51788;45.124;38.966;2022-12-18T00:42:27;16.98;;;10.02;;
65202;SDS011;51788;45.124;38.966;2022-12-18T00:45:27;20.77;;;10.35;;
65202;SDS011;51788;45.124;38.966;2022-12-18T00:47:54;18.05;;;10.32;;
65202;SDS011;51788;45.124;38.966;2022-12-18T00:50:21;14.63;;;9.52;;
65202;SDS011;51788;45.124;38.966;2022-12-18T00:52:48;19.00;;;10.07;;
65202;SDS011;51788;45.124;38.966;2022-12-18T00:55:14;15.65;;;9.80;;
65202;SDS011;51788;45.124;38.966;2022-12-18T00:57:40;18.42;;;11.63;;
65202;SDS011;51788;45.124;38.966;2022-12-18T01:00:07;14.63;;;10.70;;
65202;SDS011;51788;45.124;38.966;2022-12-18T01:02:36;13.77;;;11.27;;
65202;SDS011;51788;45.124;38.966;2022-12-18T01:05:02;17.27;;;11.00;;
65202;SDS011;51788;45.124;38.966;2022-12-18T01:07:28;18.55;;;11.43;;
65202;SDS011;51788;45.124;38.966;2022-12-18T01:09:54;16.42;;;10.77;;
65202;SDS011;51788;45.124;38.966;2022-12-18T01:12:20;14.77;;;10.35;;
65202;SDS011;51788;45.124;38.966;2022-12-18T01:14:49;18.00;;;10.35;;
65202;SDS011;51788;45.124;38.966;2022-12-18T01:17:15;20.52;;;9.23;;
65202;SDS011;51788;45.124;38.966;2022-12-18T01:19:41;14.55;;;9.45;;
65202;SDS011;51788;45.124;38.966;2022-12-18T01:22:09;15.55;;;9.90;;
65202;SDS011;51788;45.124;38.966;2022-12-18T01:24:35;14.77;;;9.35;;
65202;SDS011;51788;45.124;38.966;2022-12-18T01:27:01;11.32;;;8.85;;
65202;SDS011;51788;45.124;38.966;2022-12-18T01:29:27;11.32;;;8.93;;
65202;SDS011;51788;45.124;38.966;2022-12-18T01:31:54;16.13;;;8.98;;
65202;SDS011;51788;45.124;38.966;2022-12-18T01:34:21;12.15;;;8.85;;
65202;SDS011;51788;45.124;38.966;2022-12-18T01:36:48;17.65;;;8.13;;
65202;SDS011;51788;45.124;38.966;2022-12-18T01:39:14;13.70;;;7.57;;
65202;SDS011;51788;45.124;38.966;2022-12-18T01:41:41;13.65;;;7.90;;
65202;SDS011;51788;45.124;38.966;2022-12-18T01:49:59;15.38;;;7.25;;
65202;SDS011;51788;45.124;38.966;2022-12-18T01:52:28;16.00;;;7.22;;
65202;SDS011;51788;45.124;38.966;2022-12-18T01:54:56;9.63;;;7.53;;
65202;SDS011;51788;45.124;38.966;2022-12-18T01:57:25;11.68;;;7.45;;
65202;SDS011;51788;45.124;38.966;2022-12-18T01:59:53;13.00;;;8.18;;
65202;SDS011;51788;45.124;38.966;2022-12-18T02:02:21;13.52;;;8.38;;
65202;SDS011;51788;45.124;38.966;2022-12-18T02:04:47;11.57;;;8.60;;
65202;SDS011;51788;45.124;38.966;2022-12-18T02:07:24;11.95;;;9.05;;
65202;SDS011;51788;45.124;38.966;2022-12-18T02:10:04;11.50;;;9.45;;
65202;SDS011;51788;45.124;38.966;2022-12-18T02:12:43;10.52;;;8.43;;
65202;SDS011;51788;45.124;38.966;2022-12-18T02:15:25;13.45;;;9.02;;
65202;SDS011;51788;45.124;38.966;2022-12-18T02:18:28;17.23;;;8.75;;
65202;SDS011;51788;45.124;38.966;2022-12-18T02:20:55;11.43;;;6.97;;
65202;SDS011;51788;45.124;38.966;2022-12-18T02:28:40;9.15;;;7.35;;
65202;SDS011;51788;45.124;38.966;2022-12-18T02:31:11;8.70;;;6.13;;
65202;SDS011;51788;45.124;38.966;2022-12-18T02:33:40;8.32;;;6.55;;
65202;SDS011;51788;45.124;38.966;2022-12-18T02:36:08;13.15;;;6.80;;
65202;SDS011;51788;45.124;38.966;2022-12-18T02:38:36;9.25;;;5.95;;
65202;SDS011;51788;45.124;38.966;2022-12-18T02:41:10;10.32;;;6.18;;
65202;SDS011;51788;45.124;38.966;2022-12-18T02:43:37;12.15;;;6.47;;
65202;SDS011;51788;45.124;38.966;2022-12-18T02:49:36;6.80;;;6.10;;
65202;SDS011;51788;45.124;38.966;2022-12-18T02:55:17;7.00;;;4.03;;
65202;SDS011;51788;45.124;38.966;2022-12-18T02:57:56;4.07;;;3.67;;
65202;SDS011;51788;45.124;38.966;2022-12-18T03:00:38;5.07;;;4.10;;
65202;SDS011;51788;45.124;38.966;2022-12-18T03:03:19;3.83;;;3.60;;
65202;SDS011;51788;45.124;38.966;2022-12-18T03:08:58;4.70;;;4.03;;
65202;SDS011;51788;45.124;38.966;2022-12-18T03:11:30;7.18;;;3.60;;
65202;SDS011;51788;45.124;38.966;2022-12-18T03:14:18;6.45;;;3.67;;
65202;SDS011;51788;45.124;38.966;2022-12-18T03:16:52;5.40;;;3.17;;
65202;SDS011;51788;45.124;38.966;2022-12-18T03:19:23;5.47;;;4.85;;
65202;SDS011;51788;45.124;38.966;2022-12-18T03:21:52;4.00;;;3.60;;
65202;SDS011;51788;45.124;38.966;2022-12-18T03:24:23;6.53;;;3.47;;
65202;SDS011;51788;45.124;38.966;2022-12-18T03:26:54;9.23;;;2.80;;
65202;SDS011;51788;45.124;38.966;2022-12-18T03:29:33;4.90;;;3.22;;
65202;SDS011;51788;45.124;38.966;2022-12-18T03:32:32;2.53;;;2.33;;
65202;SDS011;51788;45.124;38.966;2022-12-18T03:35:05;3.10;;;2.90;;
65202;SDS011;51788;45.124;38.966;2022-12-18T03:37:35;3.53;;;3.17;;
65202;SDS011;51788;45.124;38.966;2022-12-18T03:40:02;3.03;;;2.72;;
65202;SDS011;51788;45.124;38.966;2022-12-18T03:42:51;5.15;;;2.80;;
65202;SDS011;51788;45.124;38.966;2022-12-18T03:45:34;2.50;;;2.38;;
65202;SDS011;51788;45.124;38.966;2022-12-18T03:48:09;3.22;;;3.03;;
65202;SDS011;51788;45.124;38.966;2022-12-18T03:51:02;3.47;;;2.78;;
65202;SDS011;51788;45.124;38.966;2022-12-18T03:56:12;5.72;;;2.78;;
65202;SDS011;51788;45.124;38.966;2022-12-18T03:58:40;2.63;;;2.42;;
65202;SDS011;51788;45.124;38.966;2022-12-18T04:01:24;2.83;;;2.63;;
65202;SDS011;51788;45.124;38.966;2022-12-18T04:03:56;2.97;;;2.70;;
65202;SDS011;51788;45.124;38.966;2022-12-18T04:06:25;3.00;;;2.80;;
65202;SDS011;51788;45.124;38.966;2022-12-18T04:08:53;3.50;;;3.30;;
65202;SDS011;51788;45.124;38.966;2022-12-18T04:11:21;3.13;;;2.78;;
65202;SDS011;51788;45.124;38.966;2022-12-18T04:13:47;3.17;;;2.80;;
65202;SDS011;51788;45.124;38.966;2022-12-18T04:16:20;3.40;;;3.15;;
65202;SDS011;51788;45.124;38.966;2022-12-18T04:18:50;3.97;;;3.15;;
65202;SDS011;51788;45.124;38.966;2022-12-18T04:21:17;4.97;;;2.60;;
65202;SDS011;51788;45.124;38.966;2022-12-18T04:23:45;3.03;;;2.83;;
65202;SDS011;51788;45.124;38.966;2022-12-18T04:26:12;3.40;;;3.10;;
65202;SDS011;51788;45.124;38.966;2022-12-18T04:28:46;3.13;;;2.92;;
65202;SDS011;51788;45.124;38.966;2022-12-18T04:31:14;7.88;;;2.95;;
65202;SDS011;51788;45.124;38.966;2022-12-18T04:33:40;3.08;;;2.88;;
65202;SDS011;51788;45.124;38.966;2022-12-18T04:36:06;3.40;;;3.15;;
65202;SDS011;51788;45.124;38.966;2022-12-18T04:38:35;3.85;;;2.80;;
65202;SDS011;51788;45.124;38.966;2022-12-18T04:41:06;3.80;;;3.00;;
65202;SDS011;51788;45.124;38.966;2022-12-18T04:43:33;3.33;;;3.03;;
65202;SDS011;51788;45.124;38.966;2022-12-18T04:46:06;4.63;;;2.60;;
65202;SDS011;51788;45.124;38.966;2022-12-18T04:48:33;7.13;;;2.70;;
65202;SDS011;51788;45.124;38.966;2022-12-18T04:51:00;4.00;;;2.88;;
65202;SDS011;51788;45.124;38.966;2022-12-18T04:53:26;3.22;;;2.92;;
65202;SDS011;51788;45.124;38.966;2022-12-18T04:56:02;3.65;;;2.75;;
65202;SDS011;51788;45.124;38.966;2022-12-18T04:58:28;2.80;;;2.60;;
65202;SDS011;51788;45.124;38.966;2022-12-18T05:00:55;3.65;;;2.63;;
65202;SDS011;51788;45.124;38.966;2022-12-18T05:03:21;2.97;;;2.75;;
65202;SDS011;51788;45.124;38.966;2022-12-18T05:05:49;2.83;;;2.58;;
65202;SDS011;51788;45.124;38.966;2022-12-18T05:08:16;2.83;;;2.63;;
65202;SDS011;51788;45.124;38.966;2022-12-18T05:10:42;4.70;;;2.85;;
65202;SDS011;51788;45.124;38.966;2022-12-18T05:13:08;2.83;;;2.63;;
65202;SDS011;51788;45.124;38.966;2022-12-18T05:15:34;3.20;;;3.00;;
65202;SDS011;51788;45.124;38.966;2022-12-18T05:18:00;2.80;;;2.60;;
65202;SDS011;51788;45.124;38.966;2022-12-18T05:20:27;2.55;;;2.42;;
65202;SDS011;51788;45.124;38.966;2022-12-18T05:22:53;2.30;;;2.17;;
65202;SDS011;51788;45.124;38.966;2022-12-18T05:25:20;6.82;;;2.80;;
65202;SDS011;51788;45.124;38.966;2022-12-18T05:27:47;2.70;;;2.20;;
65202;SDS011;51788;45.124;38.966;2022-12-18T05:30:13;6.65;;;3.10;;
65202;SDS011;51788;45.124;38.966;2022-12-18T05:32:40;2.78;;;2.58;;
65202;SDS011;51788;45.124;38.966;2022-12-18T05:35:07;2.60;;;2.20;;
65202;SDS011;51788;45.124;38.966;2022-12-18T05:37:35;2.70;;;2.40;;
65202;SDS011;51788;45.124;38.966;2022-12-18T05:40:02;2.63;;;2.42;;
65202;SDS011;51788;45.124;38.966;2022-12-18T05:42:29;2.75;;;2.35;;
65202;SDS011;51788;45.124;38.966;2022-12-18T05:44:55;2.97;;;2.78;;
65202;SDS011;51788;45.124;38.966;2022-12-18T05:47:21;3.38;;;3.00;;
65202;SDS011;51788;45.124;38.966;2022-12-18T05:49:47;5.10;;;2.80;;
65202;SDS011;51788;45.124;38.966;2022-12-18T05:52:13;7.80;;;2.83;;
65202;SDS011;51788;45.124;38.966;2022-12-18T05:54:39;3.17;;;2.97;;
65202;SDS011;51788;45.124;38.966;2022-12-18T05:57:05;6.45;;;2.90;;
65202;SDS011;51788;45.124;38.966;2022-12-18T05:59:31;1.92;;;1.83;;
65202;SDS011;51788;45.124;38.966;2022-12-18T06:01:57;2.60;;;2.40;;
65202;SDS011;51788;45.124;38.966;2022-12-18T06:04:23;3.88;;;2.95;;
65202;SDS011;51788;45.124;38.966;2022-12-18T06:06:49;2.28;;;2.08;;
65202;SDS011;51788;45.124;38.966;2022-12-18T06:09:15;2.35;;;2.13;;
65202;SDS011;51788;45.124;38.966;2022-12-18T06:11:41;3.88;;;2.53;;
65202;SDS011;51788;45.124;38.966;2022-12-18T06:14:07;2.75;;;2.55;;
65202;SDS011;51788;45.124;38.966;2022-12-18T06:16:35;3.53;;;2.63;;
65202;SDS011;51788;45.124;38.966;2022-12-18T06:19:01;2.70;;;2.50;;
65202;SDS011;51788;45.124;38.966;2022-12-18T06:21:30;2.60;;;2.40;;
65202;SDS011;51788;45.124;38.966;2022-12-18T06:23:56;2.92;;;2.65;;
65202;SDS011;51788;45.124;38.966;2022-12-18T06:26:22;2.50;;;2.30;;
65202;SDS011;51788;45.124;38.966;2022-12-18T06:28:49;2.42;;;2.30;;
65202;SDS011;51788;45.124;38.966;2022-12-18T06:31:15;2.33;;;2.22;;
65202;SDS011;51788;45.124;38.966;2022-12-18T06:33:41;2.55;;;2.40;;
65202;SDS011;51788;45.124;38.966;2022-12-18T06:36:08;2.83;;;2.63;;
65202;SDS011;51788;45.124;38.966;2022-12-18T06:38:36;4.65;;;2.58;;
65202;SDS011;51788;45.124;38.966;2022-12-18T06:41:11;7.78;;;3.20;;
65202;SDS011;51788;45.124;38.966;2022-12-18T06:43:41;8.25;;;2.42;;
65202;SDS011;51788;45.124;38.966;2022-12-18T06:46:07;3.47;;;2.65;;
65202;SDS011;51788;45.124;38.966;2022-12-18T06:48:33;7.25;;;2.60;;
65202;SDS011;51788;45.124;38.966;2022-12-18T06:51:00;4.00;;;2.70;;
65202;SDS011;51788;45.124;38.966;2022-12-18T06:53:26;4.32;;;2.80;;
65202;SDS011;51788;45.124;38.966;2022-12-18T06:55:52;3.20;;;3.00;;
65202;SDS011;51788;45.124;38.966;2022-12-18T06:58:24;5.97;;;2.75;;
65202;SDS011;51788;45.124;38.966;2022-12-18T07:00:50;11.60;;;3.05;;
65202;SDS011;51788;45.124;38.966;2022-12-18T07:03:17;9.15;;;2.65;;
65202;SDS011;51788;45.124;38.966;2022-12-18T07:05:42;4.85;;;3.03;;
65202;SDS011;51788;45.124;38.966;2022-12-18T07:08:08;9.63;;;3.20;;
65202;SDS011;51788;45.124;38.966;2022-12-18T07:10:40;7.00;;;3.50;;
65202;SDS011;51788;45.124;38.966;2022-12-18T07:13:07;2.95;;;2.72;;
65202;SDS011;51788;45.124;38.966;2022-12-18T07:15:33;10.18;;;2.95;;
65202;SDS011;51788;45.124;38.966;2022-12-18T07:17:59;4.97;;;3.30;;
65202;SDS011;51788;45.124;38.966;2022-12-18T07:20:25;2.92;;;2.72;;
65202;SDS011;51788;45.124;38.966;2022-12-18T07:22:51;2.20;;;2.10;;
65202;SDS011;51788;45.124;38.966;2022-12-18T07:25:17;3.90;;;2.80;;
65202;SDS011;51788;45.124;38.966;2022-12-18T07:27:43;3.35;;;2.67;;
65202;SDS011;51788;45.124;38.966;2022-12-18T07:30:09;4.15;;;2.50;;
65202;SDS011;51788;45.124;38.966;2022-12-18T07:32:35;6.25;;;2.95;;
65202;SDS011;51788;45.124;38.966;2022-12-18T07:35:01;3.33;;;2.88;;
65202;SDS011;51788;45.124;38.966;2022-12-18T07:37:27;4.53;;;2.85;;
65202;SDS011;51788;45.124;38.966;2022-12-18T07:39:53;2.38;;;2.28;;
65202;SDS011;51788;45.124;38.966;2022-12-18T07:42:19;3.85;;;2.45;;
65202;SDS011;51788;45.124;38.966;2022-12-18T07:45:00;3.08;;;2.67;;
65202;SDS011;51788;45.124;38.966;2022-12-18T07:47:27;7.90;;;2.63;;
65202;SDS011;51788;45.124;38.966;2022-12-18T07:49:53;7.07;;;2.97;;
65202;SDS011;51788;45.124;38.966;2022-12-18T07:52:20;5.15;;;2.80;;
65202;SDS011;51788;45.124;38.966;2022-12-18T07:54:46;2.88;;;2.65;;
65202;SDS011;51788;45.124;38.966;2022-12-18T07:57:15;3.10;;;2.80;;
65202;SDS011;51788;45.124;38.966;2022-12-18T07:59:42;3.50;;;3.20;;
65202;SDS011;51788;45.124;38.966;2022-12-18T08:02:08;3.42;;;3.03;;
65202;SDS011;51788;45.124;38.966;2022-12-18T08:04:34;3.00;;;2.80;;
65202;SDS011;51788;45.124;38.966;2022-12-18T08:07:00;2.60;;;2.40;;
65202;SDS011;51788;45.124;38.966;2022-12-18T08:09:26;3.60;;;2.95;;
65202;SDS011;51788;45.124;38.966;2022-12-18T08:11:52;22.45;;;2.90;;
65202;SDS011;51788;45.124;38.966;2022-12-18T08:14:18;4.63;;;3.05;;
65202;SDS011;51788;45.124;38.966;2022-12-18T08:16:44;7.38;;;3.40;;
65202;SDS011;51788;45.124;38.966;2022-12-18T08:19:10;5.60;;;3.00;;
65202;SDS011;51788;45.124;38.966;2022-12-18T08:21:36;12.05;;;2.97;;
65202;SDS011;51788;45.124;38.966;2022-12-18T08:24:02;3.20;;;3.00;;
65202;SDS011;51788;45.124;38.966;2022-12-18T08:26:29;4.15;;;3.15;;
65202;SDS011;51788;45.124;38.966;2022-12-18T08:28:56;6.03;;;3.15;;
65202;SDS011;51788;45.124;38.966;2022-12-18T08:31:24;3.35;;;3.10;;
65202;SDS011;51788;45.124;38.966;2022-12-18T08:33:52;4.70;;;3.33;;
65202;SDS011;51788;45.124;38.966;2022-12-18T08:36:19;3.42;;;3.13;;
65202;SDS011;51788;45.124;38.966;2022-12-18T08:38:48;8.07;;;3.28;;
65202;SDS011;51788;45.124;38.966;2022-12-18T08:41:14;5.05;;;2.92;;
65202;SDS011;51788;45.124;38.966;2022-12-18T08:43:41;4.80;;;4.35;;
65202;SDS011;51788;45.124;38.966;2022-12-18T08:46:26;6.88;;;4.00;;
65202;SDS011;51788;45.124;38.966;2022-12-18T08:48:57;7.10;;;3.47;;
65202;SDS011;51788;45.124;38.966;2022-12-18T08:51:23;3.83;;;3.08;;
65202;SDS011;51788;45.124;38.966;2022-12-18T08:53:49;7.10;;;3.50;;
65202;SDS011;51788;45.124;38.966;2022-12-18T08:56:15;3.63;;;3.15;;
65202;SDS011;51788;45.124;38.966;2022-12-18T08:58:42;3.60;;;3.17;;
65202;SDS011;51788;45.124;38.966;2022-12-18T09:01:08;2.97;;;2.78;;
65202;SDS011;51788;45.124;38.966;2022-12-18T09:03:36;2.97;;;2.78;;
65202;SDS011;51788;45.124;38.966;2022-12-18T09:06:03;6.18;;;5.30;;
65202;SDS011;51788;45.124;38.966;2022-12-18T09:08:29;6.32;;;5.30;;
65202;SDS011;51788;45.124;38.966;2022-12-18T09:10:55;6.85;;;4.25;;
65202;SDS011;51788;45.124;38.966;2022-12-18T09:13:21;4.25;;;3.85;;
65202;SDS011;51788;45.124;38.966;2022-12-18T09:15:48;4.75;;;3.72;;
65202;SDS011;51788;45.124;38.966;2022-12-18T09:18:19;5.82;;;3.67;;
65202;SDS011;51788;45.124;38.966;2022-12-18T09:20:47;4.97;;;4.05;;
65202;SDS011;51788;45.124;38.966;2022-12-18T09:23:13;4.53;;;4.13;;
65202;SDS011;51788;45.124;38.966;2022-12-18T09:25:39;11.07;;;3.88;;
65202;SDS011;51788;45.124;38.966;2022-12-18T09:28:09;15.07;;;4.07;;
65202;SDS011;51788;45.124;38.966;2022-12-18T09:30:37;3.85;;;3.50;;
65202;SDS011;51788;45.124;38.966;2022-12-18T09:33:04;11.00;;;3.58;;
65202;SDS011;51788;45.124;38.966;2022-12-18T09:35:30;4.72;;;3.55;;
65202;SDS011;51788;45.124;38.966;2022-12-18T09:37:55;10.77;;;4.20;;
65202;SDS011;51788;45.124;38.966;2022-12-18T09:40:23;9.45;;;5.07;;
65202;SDS011;51788;45.124;38.966;2022-12-18T09:42:55;11.40;;;6.90;;
65202;SDS011;51788;45.124;38.966;2022-12-18T09:45:25;21.73;;;7.85;;
65202;SDS011;51788;45.124;38.966;2022-12-18T09:47:52;15.20;;;7.30;;
65202;SDS011;51788;45.124;38.966;2022-12-18T09:53:02;7.72;;;4.22;;
65202;SDS011;51788;45.124;38.966;2022-12-18T09:55:42;6.32;;;3.70;;
65202;SDS011;51788;45.124;38.966;2022-12-18T10:00:41;6.70;;;3.05;;
65202;SDS011;51788;45.124;38.966;2022-12-18T10:03:14;4.40;;;3.78;;
65202;SDS011;51788;45.124;38.966;2022-12-18T10:08:28;17.35;;;4.82;;
65202;SDS011;51788;45.124;38.966;2022-12-18T10:20:01;8.77;;;4.70;;
65202;SDS011;51788;45.124;38.966;2022-12-18T10:22:43;18.35;;;5.88;;
65202;SDS011;51788;45.124;38.966;2022-12-18T10:28:03;8.50;;;3.45;;
65202;SDS011;51788;45.124;38.966;2022-12-18T10:30:36;3.80;;;3.42;;
65202;SDS011;51788;45.124;38.966;2022-12-18T10:33:04;3.70;;;3.13;;
65202;SDS011;51788;45.124;38.966;2022-12-18T10:35:30;10.10;;;4.30;;
65202;SDS011;51788;45.124;38.966;2022-12-18T10:43:36;9.30;;;4.82;;
65202;SDS011;51788;45.124;38.966;2022-12-18T10:48:34;12.70;;;4.75;;
65202;SDS011;51788;45.124;38.966;2022-12-18T10:51:00;3.40;;;3.20;;
65202;SDS011;51788;45.124;38.966;2022-12-18T10:53:28;5.35;;;3.95;;
65202;SDS011;51788;45.124;38.966;2022-12-18T10:55:56;5.03;;;3.88;;
65202;SDS011;51788;45.124;38.966;2022-12-18T10:58:28;6.68;;;5.15;;
65202;SDS011;51788;45.124;38.966;2022-12-18T11:03:37;7.28;;;4.85;;
65202;SDS011;51788;45.124;38.966;2022-12-18T11:08:41;5.53;;;5.03;;
65202;SDS011;51788;45.124;38.966;2022-12-18T11:11:15;8.05;;;5.20;;
65202;SDS011;51788;45.124;38.966;2022-12-18T11:14:06;9.05;;;4.50;;
65202;SDS011;51788;45.124;38.966;2022-12-18T11:16:46;7.13;;;6.07;;
65202;SDS011;51788;45.124;38.966;2022-12-18T11:21:47;13.00;;;6.57;;
65202;SDS011;51788;45.124;38.966;2022-12-18T11:24:21;10.88;;;6.95;;
65202;SDS011;51788;45.124;38.966;2022-12-18T11:26:51;9.02;;;7.75;;
65202;SDS011;51788;45.124;38.966;2022-12-18T11:29:20;17.77;;;8.38;;
65202;SDS011;51788;45.124;38.966;2022-12-18T11:31:55;11.80;;;6.53;;
65202;SDS011;51788;45.124;38.966;2022-12-18T11:34:47;8.45;;;7.63;;
65202;SDS011;51788;45.124;38.966;2022-12-18T11:37:17;20.23;;;9.27;;
65202;SDS011;51788;45.124;38.966;2022-12-18T11:39:47;19.90;;;10.20;;
65202;SDS011;51788;45.124;38.966;2022-12-18T11:45:02;26.90;;;14.40;;
65202;SDS011;51788;45.124;38.966;2022-12-18T11:50:14;24.98;;;10.57;;
65202;SDS011;51788;45.124;38.966;2022-12-18T11:52:44;20.38;;;8.77;;
65202;SDS011;51788;45.124;38.966;2022-12-18T11:55:15;15.55;;;9.52;;
65202;SDS011;51788;45.124;38.966;2022-12-18T11:57:59;19.95;;;8.20;;
65202;SDS011;51788;45.124;38.966;2022-12-18T12:00:31;37.38;;;15.52;;
65202;SDS011;51788;45.124;38.966;2022-12-18T12:12:23;27.83;;;13.48;;
65202;SDS011;51788;45.124;38.966;2022-12-18T12:15:24;30.48;;;16.15;;
65202;SDS011;51788;45.124;38.966;2022-12-18T12:24:18;33.95;;;18.17;;
65202;SDS011;51788;45.124;38.966;2022-12-18T12:32:39;37.60;;;19.83;;
65202;SDS011;51788;45.124;38.966;2022-12-18T12:38:26;39.30;;;21.02;;
65202;SDS011;51788;45.124;38.966;2022-12-18T12:40:59;26.33;;;15.70;;
65202;SDS011;51788;45.124;38.966;2022-12-18T12:46:07;26.65;;;16.25;;
65202;SDS011;51788;45.124;38.966;2022-12-18T12:51:29;21.83;;;13.95;;
65202;SDS011;51788;45.124;38.966;2022-12-18T12:53:58;26.48;;;16.58;;
65202;SDS011;51788;45.124;38.966;2022-12-18T12:56:37;25.95;;;15.80;;
65202;SDS011;51788;45.124;38.966;2022-12-18T12:59:50;29.38;;;15.05;;
65202;SDS011;51788;45.124;38.966;2022-12-18T13:02:39;22.35;;;14.20;;
65202;SDS011;51788;45.124;38.966;2022-12-18T13:08:23;61.83;;;31.48;;
65202;SDS011;51788;45.124;38.966;2022-12-18T13:10:55;49.10;;;24.27;;
65202;SDS011;51788;45.124;38.966;2022-12-18T13:13:48;39.35;;;23.17;;
65202;SDS011;51788;45.124;38.966;2022-12-18T13:16:18;50.25;;;29.67;;
65202;SDS011;51788;45.124;38.966;2022-12-18T13:18:49;30.02;;;20.40;;
65202;SDS011;51788;45.124;38.966;2022-12-18T13:21:50;21.13;;;15.55;;
65202;SDS011;51788;45.124;38.966;2022-12-18T13:24:27;29.83;;;17.85;;
65202;SDS011;51788;45.124;38.966;2022-12-18T13:26:56;30.58;;;17.55;;
65202;SDS011;51788;45.124;38.966;2022-12-18T13:32:21;77.18;;;34.55;;
65202;SDS011;51788;45.124;38.966;2022-12-18T13:34:48;16.85;;;11.70;;
65202;SDS011;51788;45.124;38.966;2022-12-18T13:37:44;33.85;;;16.88;;
65202;SDS011;51788;45.124;38.966;2022-12-18T13:46:28;18.58;;;12.32;;
65202;SDS011;51788;45.124;38.966;2022-12-18T13:51:28;21.65;;;12.52;;
65202;SDS011;51788;45.124;38.966;2022-12-18T13:53:58;26.55;;;13.82;;
65202;SDS011;51788;45.124;38.966;2022-12-18T13:56:32;27.73;;;14.30;;
65202;SDS011;51788;45.124;38.966;2022-12-18T14:01:34;28.75;;;14.95;;
65202;SDS011;51788;45.124;38.966;2022-12-18T14:04:18;30.25;;;14.60;;
65202;SDS011;51788;45.124;38.966;2022-12-18T14:07:12;21.58;;;14.40;;
65202;SDS011;51788;45.124;38.966;2022-12-18T14:09:45;27.23;;;14.95;;
65202;SDS011;51788;45.124;38.966;2022-12-18T14:20:26;19.08;;;12.10;;
65202;SDS011;51788;45.124;38.966;2022-12-18T14:22:54;18.88;;;11.77;;
65202;SDS011;51788;45.124;38.966;2022-12-18T14:25:22;25.58;;;13.32;;
65202;SDS011;51788;45.124;38.966;2022-12-18T14:30:26;20.70;;;10.70;;
65202;SDS011;51788;45.124;38.966;2022-12-18T14:33:04;20.23;;;11.70;;
65202;SDS011;51788;45.124;38.966;2022-12-18T14:35:35;25.65;;;12.38;;
65202;SDS011;51788;45.124;38.966;2022-12-18T14:40:52;23.98;;;12.18;;
65202;SDS011;51788;45.124;38.966;2022-12-18T14:43:33;22.27;;;12.07;;
65202;SDS011;51788;45.124;38.966;2022-12-18T14:46:01;22.97;;;11.50;;
65202;SDS011;51788;45.124;38.966;2022-12-18T14:48:33;30.58;;;12.27;;
65202;SDS011;51788;45.124;38.966;2022-12-18T14:51:06;20.30;;;9.38;;
65202;SDS011;51788;45.124;38.966;2022-12-18T14:53:42;25.67;;;13.52;;
65202;SDS011;51788;45.124;38.966;2022-12-18T14:56:15;27.58;;;15.43;;
65202;SDS011;51788;45.124;38.966;2022-12-18T14:58:51;24.95;;;11.65;;
65202;SDS011;51788;45.124;38.966;2022-12-18T15:01:25;19.90;;;9.93;;
65202;SDS011;51788;45.124;38.966;2022-12-18T15:04:00;17.85;;;10.15;;
65202;SDS011;51788;45.124;38.966;2022-12-18T15:06:35;11.35;;;8.43;;
65202;SDS011;51788;45.124;38.966;2022-12-18T15:09:20;21.83;;;14.25;;
65202;SDS011;51788;45.124;38.966;2022-12-18T15:11:48;15.27;;;8.88;;
65202;SDS011;51788;45.124;38.966;2022-12-18T15:14:22;17.55;;;10.63;;
65202;SDS011;51788;45.124;38.966;2022-12-18T15:17:00;16.63;;;10.38;;
65202;SDS011;51788;45.124;38.966;2022-12-18T15:19:47;21.98;;;11.80;;
65202;SDS011;51788;45.124;38.966;2022-12-18T15:22:36;15.75;;;9.10;;
65202;SDS011;51788;45.124;38.966;2022-12-18T15:25:03;17.67;;;10.43;;
65202;SDS011;51788;45.124;38.966;2022-12-18T15:27:48;13.80;;;9.13;;
65202;SDS011;51788;45.124;38.966;2022-12-18T15:30:18;15.43;;;9.35;;
65202;SDS011;51788;45.124;38.966;2022-12-18T15:32:46;16.30;;;10.18;;
65202;SDS011;51788;45.124;38.966;2022-12-18T15:35:15;7.55;;;6.78;;
65202;SDS011;51788;45.124;38.966;2022-12-18T15:37:43;10.70;;;7.55;;
65202;SDS011;51788;45.124;38.966;2022-12-18T15:40:17;11.20;;;8.27;;
65202;SDS011;51788;45.124;38.966;2022-12-18T15:42:44;15.45;;;10.23;;
65202;SDS011;51788;45.124;38.966;2022-12-18T15:45:29;18.40;;;9.60;;
65202;SDS011;51788;45.124;38.966;2022-12-18T15:47:55;12.18;;;8.60;;
65202;SDS011;51788;45.124;38.966;2022-12-18T15:50:21;16.90;;;9.98;;
65202;SDS011;51788;45.124;38.966;2022-12-18T15:52:49;17.45;;;10.98;;
65202;SDS011;51788;45.124;38.966;2022-12-18T15:55:21;17.25;;;12.90;;
65202;SDS011;51788;45.124;38.966;2022-12-18T15:58:07;20.02;;;12.38;;
65202;SDS011;51788;45.124;38.966;2022-12-18T16:00:35;17.08;;;11.38;;
65202;SDS011;51788;45.124;38.966;2022-12-18T16:03:04;17.77;;;11.55;;
65202;SDS011;51788;45.124;38.966;2022-12-18T16:05:30;26.05;;;13.93;;
65202;SDS011;51788;45.124;38.966;2022-12-18T16:07:56;14.43;;;10.35;;
65202;SDS011;51788;45.124;38.966;2022-12-18T16:10:24;19.38;;;12.52;;
65202;SDS011;51788;45.124;38.966;2022-12-18T16:12:51;17.90;;;11.98;;
65202;SDS011;51788;45.124;38.966;2022-12-18T16:15:17;17.40;;;12.75;;
65202;SDS011;51788;45.124;38.966;2022-12-18T16:17:43;14.23;;;11.10;;
65202;SDS011;51788;45.124;38.966;2022-12-18T16:20:13;12.57;;;10.20;;
65202;SDS011;51788;45.124;38.966;2022-12-18T16:22:43;11.52;;;8.30;;
65202;SDS011;51788;45.124;38.966;2022-12-18T16:25:18;13.48;;;12.13;;
65202;SDS011;51788;45.124;38.966;2022-12-18T16:27:49;12.85;;;9.98;;
65202;SDS011;51788;45.124;38.966;2022-12-18T16:30:18;15.27;;;11.52;;
65202;SDS011;51788;45.124;38.966;2022-12-18T16:32:47;14.23;;;11.60;;
65202;SDS011;51788;45.124;38.966;2022-12-18T16:35:13;14.00;;;10.77;;
65202;SDS011;51788;45.124;38.966;2022-12-18T16:37:40;11.32;;;10.13;;
65202;SDS011;51788;45.124;38.966;2022-12-18T16:40:08;10.85;;;9.75;;
65202;SDS011;51788;45.124;38.966;2022-12-18T16:42:36;14.52;;;10.48;;
65202;SDS011;51788;45.124;38.966;2022-12-18T16:45:05;12.90;;;10.23;;
65202;SDS011;51788;45.124;38.966;2022-12-18T16:47:32;16.88;;;10.95;;
65202;SDS011;51788;45.124;38.966;2022-12-18T16:49:58;18.95;;;15.15;;